Time;durP1;ratioP1;P1;durP2;ratioP2;P2;SDS_P1;SDS_P2;PMS_P1;PMS_P2;Temp;Humidity;BMP_temperature;BMP_pressure;BME280_temperature;BME280_humidity;BME280_pressure;Samples;Min_cycle;Max_cycle;Signal;HPM_P1;HPM_P2
2023/03/24 00:01:03;;;;;;;0.40;0.40;;;;;;;10.57;100.00;99532.22;6118766;23;20340;-89
2023/03/24 00:03:29;;;;;;;0.10;0.10;;;;;;;10.67;100.00;99544.97;6092828;23;20022;-89
2023/03/24 00:06:01;;;;;;;0.22;0.22;;;;;;;10.37;100.00;99496.47;6117964;23;20017;-88
2023/03/24 00:08:33;;;;;;;0.77;0.77;;;;;;;10.47;100.00;99522.28;6119854;23;20053;-89
2023/03/24 00:11:07;;;;;;;0.88;0.85;;;;;;;10.48;100.00;99529.38;6117662;23;20342;-89
2023/03/24 00:13:37;;;;;;;1.42;1.08;;;;;;;10.31;100.00;99494.72;6119058;23;20238;-89
2023/03/24 00:16:11;;;;;;;0.43;0.40;;;;;;;10.52;100.00;99532.78;6117635;23;20024;-89
2023/03/24 00:18:38;;;;;;;1.08;1.05;;;;;;;10.56;100.00;99530.66;6116837;23;20014;-89
2023/03/24 00:21:04;;;;;;;0.63;0.63;;;;;;;10.54;100.00;99520.03;6118628;23;20351;-89
2023/03/24 00:23:34;;;;;;;0.40;0.40;;;;;;;10.64;100.00;99520.88;6092845;23;20053;-88
2023/03/24 00:26:14;;;;;;;0.43;0.43;;;;;;;10.60;100.00;99514.69;6119401;23;20344;-89
2023/03/24 00:28:42;;;;;;;1.02;0.75;;;;;;;10.64;100.00;99518.09;6117541;23;20026;-88
2023/03/24 00:31:08;;;;;;;0.50;0.50;;;;;;;10.67;100.00;99520.00;6093667;23;20104;-89
2023/03/24 00:33:35;;;;;;;1.90;0.73;;;;;;;10.60;100.00;99517.44;6118688;23;20018;-89
2023/03/24 00:36:05;;;;;;;0.38;0.38;;;;;;;10.51;100.00;99506.31;6117455;23;20006;-89
2023/03/24 00:38:33;;;;;;;0.45;0.45;;;;;;;10.59;100.00;99525.03;6093572;23;20026;-88
2023/03/24 00:40:59;;;;;;;0.68;0.68;;;;;;;10.49;100.00;99515.06;6117535;23;20448;-88
2023/03/24 00:43:26;;;;;;;2.28;1.17;;;;;;;10.49;100.00;99519.84;6092557;23;20022;-88
2023/03/24 00:46:01;;;;;;;2.60;1.23;;;;;;;10.30;100.00;99496.72;6094467;23;20022;-89
2023/03/24 00:48:27;;;;;;;0.63;0.63;;;;;;;10.40;100.00;99505.88;6115993;23;20018;-90
2023/03/24 00:50:53;;;;;;;0.68;0.50;;;;;;;10.40;100.00;99505.88;6118790;23;20017;-88
2023/03/24 00:53:22;;;;;;;0.68;0.68;;;;;;;10.40;100.00;99492.00;6092716;23;20209;-88
2023/03/24 00:55:48;;;;;;;0.77;0.70;;;;;;;10.38;100.00;99486.16;6117817;23;20100;-88
2023/03/24 00:58:22;;;;;;;0.63;0.63;;;;;;;10.51;100.00;99504.31;6093881;23;20006;-88
2023/03/24 01:00:50;;;;;;;0.95;0.50;;;;;;;10.52;100.00;99496.75;6116822;23;20101;-89
2023/03/24 01:03:17;;;;;;;1.00;1.00;;;;;;;10.44;100.00;99485.13;6117983;23;20041;-89
2023/03/24 01:05:47;;;;;;;6.78;1.25;;;;;;;10.42;100.00;99478.50;6117404;23;20113;-89
2023/03/24 01:08:15;;;;;;;1.08;0.85;;;;;;;10.52;100.00;99497.53;6117126;23;20024;-89
2023/03/24 01:10:49;;;;;;;0.40;0.40;;;;;;;10.53;100.00;99489.97;6093845;23;20519;-89
2023/03/24 01:13:16;;;;;;;0.55;0.55;;;;;;;10.50;100.00;99490.88;6093771;23;20044;-89
2023/03/24 01:15:43;;;;;;;1.55;1.45;;;;;;;10.41;100.00;99479.72;6119170;23;20018;-89
2023/03/24 01:18:11;;;;;;;0.90;0.90;;;;;;;10.39;100.00;99487.72;6091788;23;20014;-89
2023/03/24 01:20:39;;;;;;;0.38;0.32;;;;;;;10.40;100.00;99483.69;6117274;23;20037;-89
2023/03/24 01:23:05;;;;;;;0.17;0.17;;;;;;;10.35;100.00;99489.84;6117697;23;20514;-88
2023/03/24 01:25:31;;;;;;;0.85;0.85;;;;;;;10.26;100.00;99485.75;6092261;23;20014;-89
2023/03/24 01:27:57;;;;;;;1.40;0.68;;;;;;;10.19;100.00;99472.13;6094093;23;20034;-89
2023/03/24 01:30:25;;;;;;;0.90;0.80;;;;;;;10.11;100.00;99476.31;6092039;23;20014;-88
2023/03/24 01:32:52;;;;;;;0.30;0.30;;;;;;;9.97;100.00;99468.50;6116588;23;20266;-89
2023/03/24 01:35:18;;;;;;;1.75;1.45;;;;;;;9.94;100.00;99477.72;6094102;23;20010;-88
2023/03/24 01:37:44;;;;;;;0.55;0.55;;;;;;;9.86;100.00;99465.31;6092075;23;20018;-89
2023/03/24 01:40:16;;;;;;;1.73;1.50;;;;;;;9.73;100.00;99454.25;6118843;23;20076;-89
2023/03/24 01:42:42;;;;;;;2.55;1.73;;;;;;;9.77;100.00;99459.66;6116848;23;20112;-88
2023/03/24 01:45:52;;;;;;;1.02;0.90;;;;;;;9.81;100.00;99469.41;6092946;23;20508;-88
2023/03/24 01:48:33;;;;;;;0.50;0.50;;;;;;;9.72;100.00;99472.09;6113336;23;20156;-89
2023/03/24 01:51:03;;;;;;;0.55;0.55;;;;;;;9.64;100.00;99462.47;6093237;23;20018;-88
2023/03/24 01:53:31;;;;;;;0.57;0.57;;;;;;;9.58;100.00;99463.47;6093735;23;20049;-88
2023/03/24 01:55:57;;;;;;;1.05;1.02;;;;;;;9.52;100.00;99454.16;6091458;23;20010;-88
2023/03/24 01:58:28;;;;;;;1.65;1.20;;;;;;;9.41;100.00;99437.09;6095459;23;20313;-89
2023/03/24 02:01:09;;;;;;;1.63;0.98;;;;;;;9.44;100.00;99448.06;6117958;23;20064;-89
2023/03/24 02:03:55;;;;;;;1.38;1.27;;;;;;;9.53;100.00;99458.47;6119502;23;20102;-89
2023/03/24 02:06:25;;;;;;;0.30;0.30;;;;;;;9.53;100.00;99450.94;6095425;23;20384;-88
2023/03/24 02:08:58;;;;;;;2.35;2.15;;;;;;;9.50;100.00;99442.75;6094466;23;20014;-88
2023/03/24 02:11:30;;;;;;;1.88;1.30;;;;;;;9.54;100.00;99446.19;6096546;23;20486;-89
2023/03/24 02:13:59;;;;;;;0.10;0.10;;;;;;;9.44;100.00;99430.69;6095546;23;20041;-88
2023/03/24 02:16:42;;;;;;;0.63;0.63;;;;;;;9.56;100.00;99449.28;6095719;23;20009;-88
2023/03/24 02:19:25;;;;;;;0.50;0.50;;;;;;;9.44;100.00;99437.00;6094212;23;20022;-89
2023/03/24 02:21:52;;;;;;;0.82;0.82;;;;;;;9.53;100.00;99450.16;6118614;23;20033;-88
2023/03/24 02:24:36;;;;;;;1.15;1.02;;;;;;;9.53;100.00;99447.41;6119821;23;20054;-88
2023/03/24 02:27:17;;;;;;;3.30;2.17;;;;;;;9.52;100.00;99454.94;6117553;23;20483;-89
2023/03/24 02:30:13;;;;;;;2.20;2.08;;;;;;;9.21;100.00;99413.22;6095042;23;20022;-88
2023/03/24 02:33:10;;;;;;;0.63;0.63;;;;;;;9.35;100.00;99442.41;6089768;23;20379;-89
2023/03/24 02:35:35;;;;;;;0.50;0.50;;;;;;;9.33;100.00;99442.88;6119948;23;20499;-88
2023/03/24 06:30:05;;;;;;;0.75;0.75;;;;;;;10.91;100.00;99395.47;6100474;23;20073;-89
2023/03/24 06:32:31;;;;;;;1.67;1.42;;;;;;;11.14;100.00;99408.84;6139421;23;20395;-88
2023/03/24 06:34:58;;;;;;;1.10;1.08;;;;;;;11.29;100.00;99414.59;6119029;23;20025;-89
2023/03/24 06:37:33;;;;;;;3.10;1.35;;;;;;;11.36;100.00;99404.00;6120753;23;20492;-88
2023/03/24 06:40:00;;;;;;;1.15;1.15;;;;;;;11.53;100.00;99402.50;6095707;23;20021;-88
2023/03/24 06:42:29;;;;;;;1.10;1.10;;;;;;;11.69;100.00;99415.34;6119984;23;20474;-89
2023/03/24 06:44:55;;;;;;;1.40;1.30;;;;;;;11.79;100.00;99408.63;6117877;23;20025;-89
2023/03/24 06:47:21;;;;;;;0.30;0.30;;;;;;;11.82;100.00;99385.47;6149115;23;20006;-96
2023/03/24 06:49:50;;;;;;;1.02;1.02;;;;;;;11.81;100.00;99377.59;6149309;23;20062;-96
2023/03/24 06:52:18;;;;;;;2.10;1.58;;;;;;;12.00;100.00;99368.03;6126985;23;20013;-94
2023/03/24 06:54:44;;;;;;;1.65;1.10;;;;;;;12.36;100.00;99378.38;6152428;23;20018;-96
2023/03/24 06:57:10;;;;;;;1.83;1.17;;;;;;;12.84;99.43;99412.75;6127778;23;19998;-96
2023/03/24 06:59:56;;;;;;;0.68;0.68;;;;;;;12.91;96.42;99370.69;6130898;23;20049;-95
2023/03/24 07:02:24;;;;;;;0.52;0.40;;;;;;;12.96;92.79;99368.03;6150914;23;20006;-96
2023/03/24 07:04:52;;;;;;;0.82;0.82;;;;;;;13.21;93.56;99374.47;6153171;23;20013;-96
2023/03/24 07:07:36;;;;;;;1.45;1.15;;;;;;;13.39;92.53;99369.56;6133602;23;20030;-94
2023/03/24 07:10:20;;;;;;;2.30;1.85;;;;;;;13.53;89.73;99401.56;6086867;23;20465;-94
2023/03/24 07:12:47;;;;;;;0.43;0.43;;;;;;;13.28;92.76;99382.47;6086835;23;20023;-94
2023/03/24 07:15:12;;;;;;;0.85;0.70;;;;;;;13.43;92.04;99391.69;6063656;23;20038;-93
2023/03/24 07:17:41;;;;;;;2.15;1.10;;;;;;;13.56;90.70;99395.03;6063604;23;20015;-93
2023/03/24 07:20:30;;;;;;;0.82;0.82;;;;;;;13.69;90.71;99409.50;6063993;23;20420;-92
2023/03/24 07:23:12;;;;;;;0.95;0.88;;;;;;;13.68;86.58;99391.25;6062120;23;20019;-93
2023/03/24 07:25:48;;;;;;;1.58;1.48;;;;;;;13.56;89.08;99389.47;6064084;23;20097;-93
2023/03/24 07:28:29;;;;;;;0.32;0.32;;;;;;;13.53;88.95;99398.78;6063112;23;20018;-93
2023/03/24 07:30:54;;;;;;;1.83;1.15;;;;;;;13.48;90.20;99393.84;6064514;23;20359;-94
2023/03/24 07:33:20;;;;;;;0.65;0.63;;;;;;;13.59;90.16;99405.22;6062329;23;20514;-93
2023/03/24 07:35:46;;;;;;;0.77;0.77;;;;;;;13.55;90.10;99399.81;6064303;23;20019;-92
2023/03/24 07:38:12;;;;;;;0.65;0.50;;;;;;;13.42;91.98;99382.59;6062515;23;20011;-93
2023/03/24 07:40:38;;;;;;;0.47;0.47;;;;;;;13.48;91.57;99391.81;6063711;23;20056;-92
2023/03/24 07:43:04;;;;;;;0.93;0.85;;;;;;;13.45;92.61;99380.84;6039568;23;20452;-94
2023/03/24 07:45:36;;;;;;;0.37;0.37;;;;;;;13.77;92.29;99379.28;6065104;23;20077;-93
2023/03/24 07:48:03;;;;;;;0.65;0.47;;;;;;;14.05;88.02;99374.28;6063455;23;20027;-92
2023/03/24 07:50:34;;;;;;;1.25;1.17;;;;;;;14.48;86.58;99378.44;6064092;23;20019;-94
2023/03/24 07:53:08;;;;;;;0.40;0.40;;;;;;;14.84;83.94;99378.81;6063233;23;20262;-94
2023/03/24 07:55:36;;;;;;;0.95;0.90;;;;;;;15.26;81.68;99377.72;6064493;23;20425;-94
2023/03/24 07:58:08;;;;;;;1.70;1.13;;;;;;;15.57;74.85;99355.59;6062440;23;20047;-94
2023/03/24 08:00:37;;;;;;;0.75;0.75;;;;;;;15.86;75.37;99374.28;6064263;23;20367;-95
2023/03/24 08:03:27;;;;;;;0.57;0.57;;;;;;;15.91;72.53;99367.22;6067065;23;20057;-93
2023/03/24 08:06:11;;;;;;;1.40;0.93;;;;;;;16.16;72.18;99372.88;6063115;23;20550;-94
2023/03/24 08:08:43;;;;;;;0.60;0.60;;;;;;;16.37;70.38;99365.22;6061144;23;20011;-93
2023/03/24 08:11:09;;;;;;;0.85;0.85;;;;;;;16.32;68.89;99363.13;6063454;23;20107;-94
2023/03/24 08:13:38;;;;;;;1.65;1.55;;;;;;;16.45;69.46;99345.97;6063973;23;20030;-93
2023/03/24 08:16:03;;;;;;;0.90;0.90;;;;;;;16.68;66.24;99362.50;6039449;23;20107;-92
2023/03/24 08:18:33;;;;;;;0.57;0.57;;;;;;;16.90;67.71;99345.16;6062646;23;20450;-93
2023/03/24 08:21:01;;;;;;;1.60;1.00;;;;;;;17.30;64.39;99349.00;6087120;23;20019;-93
2023/03/24 08:23:27;;;;;;;1.30;0.95;;;;;;;17.57;63.01;99337.97;6063650;23;20046;-95
2023/03/24 08:25:52;;;;;;;2.05;1.55;;;;;;;17.86;60.61;99334.03;6063800;23;20518;-94
2023/03/24 08:28:18;;;;;;;0.40;0.40;;;;;;;18.04;58.97;99332.81;6086652;23;20031;-93
2023/03/24 08:30:44;;;;;;;3.45;1.63;;;;;;;18.35;57.16;99340.31;6063510;23;20010;-94
2023/03/24 08:33:11;;;;;;;1.35;1.17;;;;;;;18.69;53.65;99335.53;6062738;23;20505;-93
2023/03/24 08:35:37;;;;;;;2.03;1.55;;;;;;;19.00;53.08;99332.50;6063093;23;20082;-94
2023/03/24 08:38:03;;;;;;;2.75;1.70;;;;;;;19.37;49.58;99326.56;6087599;23;20098;-93
2023/03/24 08:40:30;;;;;;;2.88;1.10;;;;;;;19.44;48.53;99314.81;6063708;23;20082;-94
2023/03/24 08:42:58;;;;;;;1.42;1.33;;;;;;;19.45;47.08;99325.53;6063949;23;20094;-94
2023/03/24 08:45:27;;;;;;;3.55;1.42;;;;;;;19.63;46.12;99327.03;6063051;23;20019;-93
2023/03/24 08:47:54;;;;;;;2.22;1.58;;;;;;;19.38;46.36;99328.84;6063241;23;20443;-94
2023/03/24 08:50:22;;;;;;;2.95;1.83;;;;;;;19.48;46.80;99330.16;6063824;23;20089;-94
2023/03/24 08:52:48;;;;;;;3.50;1.63;;;;;;;19.69;46.29;99332.66;6063803;23;20046;-94
2023/03/24 08:55:15;;;;;;;2.67;2.47;;;;;;;19.78;45.76;99319.03;6063075;23;20069;-95
2023/03/24 08:57:41;;;;;;;2.08;1.88;;;;;;;19.90;46.16;99334.59;6087433;23;20019;-94
2023/03/24 09:00:17;;;;;;;2.88;1.85;;;;;;;19.96;45.11;99320.50;6063164;23;20007;-94
2023/03/24 09:02:48;;;;;;;1.48;1.38;;;;;;;20.30;45.25;99321.88;6063717;23;20147;-94
2023/03/24 09:05:18;;;;;;;1.25;0.82;;;;;;;20.41;42.49;99321.06;6062770;23;20117;-94
2023/03/24 09:07:44;;;;;;;2.30;1.70;;;;;;;20.40;42.49;99314.66;6061923;23;20026;-93
2023/03/24 09:10:10;;;;;;;2.40;1.27;;;;;;;20.43;42.21;99324.88;6062975;23;20029;-94
2023/03/24 09:12:37;;;;;;;5.45;1.30;;;;;;;20.38;42.70;99313.66;6065045;23;20042;-95
2023/03/24 09:15:05;;;;;;;2.95;2.10;;;;;;;20.40;42.98;99314.66;6063878;23;20436;-95
2023/03/24 09:17:31;;;;;;;2.90;1.10;;;;;;;20.25;42.40;99319.09;6061506;23;20010;-94
2023/03/24 09:19:59;;;;;;;1.67;1.45;;;;;;;20.20;42.94;99317.06;6063818;23;20086;-95
2023/03/24 09:22:25;;;;;;;1.00;0.80;;;;;;;20.26;42.52;99304.47;6043144;23;20054;-94
2023/03/24 09:24:51;;;;;;;2.13;1.92;;;;;;;20.55;42.59;99311.47;6063351;23;20023;-93
2023/03/24 09:27:17;;;;;;;2.88;1.25;;;;;;;20.64;41.42;99313.97;6063546;23;20491;-95
2023/03/24 09:29:42;;;;;;;1.42;0.63;;;;;;;20.64;41.57;99294.25;6064199;23;20021;-95
2023/03/24 09:32:08;;;;;;;4.70;1.45;;;;;;;20.63;41.50;99286.31;6063749;23;20015;-94
2023/03/24 09:34:37;;;;;;;1.50;1.38;;;;;;;20.65;41.36;99301.44;6063944;23;20458;-93
2023/03/24 09:37:04;;;;;;;1.50;1.13;;;;;;;20.65;42.21;99300.66;6063681;23;20015;-94
2023/03/24 09:39:31;;;;;;;1.67;1.58;;;;;;;20.91;41.48;99306.59;6064047;23;20487;-95
2023/03/24 09:41:56;;;;;;;1.42;1.30;;;;;;;20.88;41.28;99299.19;6064556;23;20019;-94
2023/03/24 09:44:33;;;;;;;1.48;1.38;;;;;;;21.10;40.92;99301.81;6087852;23;20018;-93
2023/03/24 09:47:19;;;;;;;1.67;1.20;;;;;;;21.18;40.48;99296.38;6062880;23;20027;-95
2023/03/24 09:49:45;;;;;;;1.05;0.85;;;;;;;21.18;40.10;99285.88;6057923;23;20023;-94
2023/03/24 09:52:13;;;;;;;0.50;0.50;;;;;;;21.27;39.85;99298.88;6063147;23;20014;-95
2023/03/24 09:54:55;;;;;;;2.45;1.05;;;;;;;21.37;39.06;99302.84;6062867;23;20026;-95
2023/03/24 09:57:32;;;;;;;1.50;1.40;;;;;;;21.56;38.68;99288.78;6063376;23;20466;-95
2023/03/24 09:59:58;;;;;;;0.73;0.73;;;;;;;21.60;39.17;99280.78;6086913;23;20079;-95
2023/03/24 10:02:28;;;;;;;0.85;0.73;;;;;;;21.83;39.59;99284.88;6062789;23;20086;-95
2023/03/24 10:04:54;;;;;;;1.52;1.38;;;;;;;22.04;37.96;99285.88;6063123;23;20082;-95
2023/03/24 10:07:33;;;;;;;0.50;0.32;;;;;;;21.98;37.33;99262.63;6063402;23;20042;-94
2023/03/24 10:09:59;;;;;;;2.58;2.25;;;;;;;21.92;37.84;99266.84;6063130;23;20078;-94
2023/03/24 10:12:38;;;;;;;3.33;1.92;;;;;;;21.98;37.69;99270.34;6086983;23;20019;-95
2023/03/24 10:15:22;;;;;;;0.40;0.40;;;;;;;22.12;36.69;99275.50;6063299;23;20098;-95
2023/03/24 10:18:11;;;;;;;0.68;0.63;;;;;;;22.20;36.51;99262.28;6062748;23;20019;-95
2023/03/24 10:20:44;;;;;;;1.30;0.98;;;;;;;22.19;36.77;99263.63;6087841;23;20015;-95
2023/03/24 10:23:25;;;;;;;1.40;1.30;;;;;;;22.14;37.73;99255.22;6089101;23;20402;-95
2023/03/24 10:26:22;;;;;;;0.60;0.60;;;;;;;22.02;36.79;99268.72;6089627;23;20340;-95
2023/03/24 10:29:09;;;;;;;0.88;0.88;;;;;;;21.81;37.22;99265.63;6088879;23;20027;-95
2023/03/24 10:31:35;;;;;;;1.15;0.85;;;;;;;21.58;37.29;99255.94;6088545;23;20019;-96
2023/03/24 10:34:01;;;;;;;1.60;1.00;;;;;;;21.44;37.94;99256.34;6065083;23;20046;-95
2023/03/24 10:36:27;;;;;;;0.82;0.57;;;;;;;21.38;38.01;99260.00;6088601;23;20010;-95
2023/03/24 10:38:54;;;;;;;1.42;1.17;;;;;;;21.34;38.23;99247.50;6088695;23;20027;-95
2023/03/24 10:41:27;;;;;;;0.93;0.93;;;;;;;21.54;37.92;99260.34;6064076;23;20019;-94
2023/03/24 10:43:55;;;;;;;0.68;0.68;;;;;;;21.65;38.46;99257.38;6088982;23;20090;-95
2023/03/24 10:46:24;;;;;;;0.82;0.82;;;;;;;21.82;37.80;99257.94;6089317;23;20106;-96
2023/03/24 10:49:10;;;;;;;1.35;1.27;;;;;;;21.88;37.48;99255.78;6064588;23;20055;-95
2023/03/24 10:51:37;;;;;;;0.90;0.90;;;;;;;21.78;37.12;99251.81;6066513;23;20018;-95
2023/03/24 10:54:18;;;;;;;1.15;1.02;;;;;;;21.58;37.82;99252.34;6065955;23;20009;-95
2023/03/24 10:57:04;;;;;;;0.40;0.40;;;;;;;21.46;38.17;99242.47;6064760;23;20462;-94
2023/03/24 10:59:53;;;;;;;0.75;0.63;;;;;;;21.49;38.39;99264.75;6064931;23;20046;-95
2023/03/24 11:02:30;;;;;;;0.95;0.70;;;;;;;21.53;37.93;99250.34;6064512;23;20495;-94
2023/03/24 11:05:01;;;;;;;0.68;0.68;;;;;;;21.60;38.33;99247.69;6064573;23;20026;-94
2023/03/24 11:07:34;;;;;;;1.25;1.15;;;;;;;21.71;37.42;99246.78;6064536;23;20443;-94
2023/03/24 11:10:03;;;;;;;0.85;0.82;;;;;;;21.67;37.55;99251.97;6063620;23;20018;-94
2023/03/24 11:12:30;;;;;;;0.63;0.50;;;;;;;21.64;37.84;99236.84;6088506;23;20135;-95
2023/03/24 11:15:15;;;;;;;0.93;0.93;;;;;;;21.69;38.17;99232.44;6064621;23;20026;-94
2023/03/24 11:17:41;;;;;;;1.30;0.77;;;;;;;21.90;37.77;99230.63;6086181;23;20015;-94
2023/03/24 11:20:19;;;;;;;1.00;0.85;;;;;;;22.18;37.24;99221.78;6063999;23;20321;-94
2023/03/24 11:23:22;;;;;;;0.98;0.98;;;;;;;22.38;37.02;99212.72;6065281;23;20047;-94
2023/03/24 11:26:28;;;;;;;7.70;1.17;;;;;;;22.31;36.35;99219.78;6055247;23;20046;-95
2023/03/24 11:28:59;;;;;;;0.82;0.68;;;;;;;22.21;36.24;99198.84;6089192;23;20034;-95
2023/03/24 11:31:29;;;;;;;0.50;0.50;;;;;;;22.49;36.43;99211.78;6064993;23;20466;-94
2023/03/24 11:34:10;;;;;;;2.00;1.65;;;;;;;22.83;35.65;99200.69;6039502;23;20019;-95
2023/03/24 11:36:41;;;;;;;0.68;0.68;;;;;;;23.21;35.15;99211.25;6064438;23;20101;-94
2023/03/24 11:39:28;;;;;;;1.02;0.93;;;;;;;23.24;34.39;99190.38;6039653;23;20031;-95
2023/03/24 11:42:10;;;;;;;0.77;0.65;;;;;;;23.39;33.82;99200.38;6065048;23;20014;-94
2023/03/24 11:44:36;;;;;;;0.77;0.60;;;;;;;23.11;33.66;99203.75;6063898;23;20185;-95
2023/03/24 11:47:07;;;;;;;0.73;0.73;;;;;;;22.46;33.89;99187.41;6087366;23;20043;-94
2023/03/24 11:49:39;;;;;;;1.40;1.05;;;;;;;22.32;35.49;99187.38;6062373;23;20042;-94
2023/03/24 11:52:27;;;;;;;0.65;0.65;;;;;;;22.46;35.30;99193.84;6062145;23;20466;-93
2023/03/24 11:54:53;;;;;;;0.57;0.57;;;;;;;22.22;34.83;99183.44;6059822;23;20482;-94
2023/03/24 11:57:50;;;;;;;0.73;0.73;;;;;;;21.88;35.90;99184.47;6062735;23;20074;-93
2023/03/24 12:00:28;;;;;;;0.40;0.40;;;;;;;21.79;36.14;99185.63;6077544;23;20030;-94
2023/03/24 12:03:02;;;;;;;0.75;0.60;;;;;;;21.60;36.08;99179.94;6087240;23;20038;-94
2023/03/24 12:05:53;;;;;;;0.57;0.55;;;;;;;21.33;36.35;99148.00;6061710;23;20027;-93
2023/03/24 12:08:25;;;;;;;1.60;1.00;;;;;;;21.45;36.44;99171.19;6039783;23;20070;-93
2023/03/24 12:11:05;;;;;;;0.57;0.30;;;;;;;21.31;36.64;99158.31;6098160;23;20026;-94
2023/03/24 12:13:48;;;;;;;0.73;0.73;;;;;;;21.56;36.38;99165.38;6063343;23;20042;-94
2023/03/24 12:16:41;;;;;;;1.13;1.05;;;;;;;21.85;35.57;99167.28;6112806;23;20275;-94
2023/03/24 12:19:22;;;;;;;;;;;;;;;22.12;35.14;99154.06;6089348;23;20011;-94
2023/03/24 12:22:05;;;;;;;1.42;1.00;;;;;;;22.44;35.31;99147.66;6093473;23;19909;-96
2023/03/24 12:24:34;;;;;;;;;;;;;;;22.69;34.30;99154.66;6114912;23;20019;-95
2023/03/24 12:27:32;;;;;;;0.43;0.43;;;;;;;22.86;34.55;99143.81;6117814;23;19921;-95
2023/03/24 12:30:14;;;;;;;0.40;0.40;;;;;;;22.72;33.21;99116.84;6107070;23;20026;-96
2023/03/24 12:33:02;;;;;;;1.30;0.77;;;;;;;22.68;33.43;99127.69;6097072;23;20354;-95
2023/03/24 12:35:36;;;;;;;0.45;0.45;;;;;;;22.73;33.38;99124.00;6095731;23;20011;-94
2023/03/24 12:38:24;;;;;;;1.17;0.68;;;;;;;22.99;32.81;99134.56;6093648;23;20022;-95
2023/03/24 12:41:02;;;;;;;0.40;0.35;;;;;;;22.99;32.64;99129.66;6138438;23;20149;-96
2023/03/24 12:43:48;;;;;;;0.05;0.05;;;;;;;23.11;31.99;99128.16;6114689;23;20518;-95
2023/03/24 12:46:17;;;;;;;0.63;0.63;;;;;;;23.10;31.00;99128.69;6088395;23;20025;-95
2023/03/24 12:49:41;;;;;;;0.50;0.45;;;;;;;22.75;31.56;99090.31;6095479;23;20018;-96
2023/03/24 12:52:36;;;;;;;0.63;0.50;;;;;;;22.69;31.88;99106.59;6085293;23;20105;-95
2023/03/24 12:55:03;;;;;;;0.52;0.52;;;;;;;22.89;31.96;99114.44;6031049;23;20026;-95
2023/03/24 12:57:40;;;;;;;0.40;0.40;;;;;;;22.92;31.91;99107.72;6048641;23;20010;-95
2023/03/24 13:00:11;;;;;;;1.90;0.77;;;;;;;23.12;31.97;99109.09;6068932;23;20019;-96
2023/03/24 13:02:47;;;;;;;0.25;0.25;;;;;;;23.14;31.46;99093.09;6092382;23;20028;-95
2023/03/24 13:05:34;;;;;;;0.25;0.25;;;;;;;23.12;31.87;99080.81;6136186;23;20022;-95
2023/03/24 13:08:09;;;;;;;0.43;0.40;;;;;;;23.20;30.88;99071.13;6067285;23;20026;-95
2023/03/24 13:10:39;;;;;;;0.75;0.65;;;;;;;23.33;31.67;99083.72;6111619;23;20022;-96
2023/03/24 13:13:18;;;;;;;0.60;0.52;;;;;;;23.39;31.47;99098.50;6094295;23;20022;-95
2023/03/24 13:15:46;;;;;;;0.13;0.13;;;;;;;23.55;30.61;99086.06;6112930;23;20454;-95
2023/03/24 13:18:34;;;;;;;0.63;0.63;;;;;;;23.55;30.46;99080.41;6095271;23;20022;-95
2023/03/24 13:21:16;;;;;;;1.92;1.63;;;;;;;23.76;30.45;99098.19;6091139;23;20067;-95
2023/03/24 13:23:53;;;;;;;0.13;0.13;;;;;;;23.88;30.54;99082.44;6112996;23;20145;-95
2023/03/24 13:26:23;;;;;;;0.00;0.00;;;;;;;23.75;30.39;99044.94;6096404;23;20021;-95
2023/03/24 13:29:22;;;;;;;0.77;0.77;;;;;;;24.03;30.49;99059.91;6094603;23;20584;-96
2023/03/24 13:31:57;;;;;;;0.43;0.43;;;;;;;24.18;29.89;99076.34;6097229;23;20490;-95
2023/03/24 13:34:43;;;;;;;0.50;0.25;;;;;;;23.81;29.90;99052.00;6072152;23;20014;-95
2023/03/24 13:37:23;;;;;;;1.05;0.65;;;;;;;23.75;29.88;99067.59;6093737;23;20018;-96
2023/03/24 13:39:54;;;;;;;1.27;0.95;;;;;;;23.66;29.76;99055.41;6074271;23;20010;-95
2023/03/24 13:42:43;;;;;;;0.20;0.20;;;;;;;23.58;30.54;99082.88;6091714;23;20026;-95
2023/03/24 13:45:43;;;;;;;1.27;0.57;;;;;;;23.19;30.42;99078.09;6095964;23;20118;-96
2023/03/24 13:48:21;;;;;;;0.20;0.20;;;;;;;22.80;31.16;99038.56;6121038;23;20049;-95
2023/03/24 13:51:18;;;;;;;0.63;0.63;;;;;;;22.74;31.49;99049.19;6072912;23;20110;-95
2023/03/24 13:54:20;;;;;;;0.50;0.20;;;;;;;22.62;31.89;99062.00;6094409;23;20019;-95
2023/03/24 13:56:54;;;;;;;0.73;0.40;;;;;;;22.37;32.23;99043.72;6075066;23;20436;-95
2023/03/24 14:00:00;;;;;;;0.30;0.28;;;;;;;22.64;32.36;99062.25;6073932;23;20018;-95
2023/03/24 14:02:52;;;;;;;0.22;0.22;;;;;;;22.60;32.60;99062.56;6087659;23;20608;-95
2023/03/24 14:05:21;;;;;;;0.22;0.22;;;;;;;22.72;32.62;99065.97;6113825;23;20026;-95
2023/03/24 14:08:07;;;;;;;0.45;0.45;;;;;;;22.75;32.39;99070.53;6093650;23;20327;-95
2023/03/24 14:10:50;;;;;;;0.73;0.65;;;;;;;22.64;32.63;99039.63;6071573;23;20059;-95
2023/03/24 14:13:21;;;;;;;0.82;0.82;;;;;;;22.59;32.26;99035.59;6071442;23;20054;-92
2023/03/24 14:15:52;;;;;;;0.38;0.38;;;;;;;22.69;32.55;99050.84;6114843;23;20018;-96
2023/03/24 14:18:23;;;;;;;0.55;0.55;;;;;;;22.75;32.73;99054.31;6090483;23;20014;-95
2023/03/24 14:20:56;;;;;;;0.52;0.47;;;;;;;22.72;33.32;99061.06;6091863;23;20022;-95
2023/03/24 14:23:38;;;;;;;0.30;0.20;;;;;;;22.96;32.29;99054.41;6114483;23;20023;-95
2023/03/24 14:26:12;;;;;;;0.60;0.60;;;;;;;22.99;32.72;99044.84;6059871;23;20018;-95
2023/03/24 14:28:49;;;;;;;0.65;0.57;;;;;;;22.85;32.25;99020.69;6120429;23;20011;-94
2023/03/24 14:31:14;;;;;;;0.40;0.40;;;;;;;23.09;32.47;99048.72;6088911;23;20022;-95
2023/03/24 14:33:52;;;;;;;0.95;0.60;;;;;;;23.11;32.56;99048.94;6091606;23;20027;-95
2023/03/24 14:36:41;;;;;;;0.60;0.55;;;;;;;22.99;32.81;99042.00;6093402;23;20042;-94
2023/03/24 14:39:25;;;;;;;1.17;1.08;;;;;;;22.84;32.69;99041.06;6090007;23;20019;-95
2023/03/24 14:41:51;;;;;;;0.90;0.65;;;;;;;22.39;33.27;99001.59;6095251;23;20014;-95
2023/03/24 14:44:54;;;;;;;0.00;0.00;;;;;;;22.40;33.46;99039.84;6089714;23;20042;-95
2023/03/24 14:47:29;;;;;;;0.40;0.40;;;;;;;22.10;33.91;99009.81;6088327;23;20029;-93
